createdAt,value
2022-12-13T00:00:19.188Z,97.50
2022-12-13T00:00:55.000Z,97.50
2022-12-13T00:01:30.822Z,97.40
2022-12-13T00:02:07.530Z,97.40
2022-12-13T00:02:42.583Z,97.40
2022-12-13T00:03:18.395Z,97.50
2022-12-13T00:03:54.775Z,97.50
2022-12-13T00:04:30.005Z,97.50
2022-12-13T00:05:07.084Z,97.50
2022-12-13T00:05:45.158Z,97.50
2022-12-13T00:06:20.602Z,97.30
2022-12-13T00:06:55.343Z,97.20
2022-12-13T00:07:31.317Z,97.10
2022-12-13T00:08:07.433Z,97.00
2022-12-13T00:08:42.520Z,97.10
2022-12-13T00:09:20.711Z,97.00
2022-12-13T00:09:55.920Z,97.00
2022-12-13T00:10:36.662Z,97.00
2022-12-13T00:11:14.524Z,97.00
2022-12-13T00:11:51.339Z,97.00
2022-12-13T00:12:27.580Z,97.00
2022-12-13T00:13:00.907Z,97.00
2022-12-13T00:13:36.243Z,97.10
2022-12-13T00:14:10.453Z,97.20
2022-12-13T00:14:46.356Z,97.20
2022-12-13T00:15:20.485Z,97.30
2022-12-13T00:15:57.896Z,97.40
2022-12-13T00:16:34.666Z,97.40
2022-12-13T00:17:09.616Z,97.30
2022-12-13T00:17:43.917Z,97.20
2022-12-13T00:18:19.790Z,97.10
2022-12-13T00:18:59.375Z,97.00
2022-12-13T00:19:34.884Z,97.00
2022-12-13T00:20:11.898Z,97.00
2022-12-13T00:20:45.678Z,97.10
2022-12-13T00:21:24.002Z,97.10
2022-12-13T00:21:59.365Z,97.20
2022-12-13T00:22:35.287Z,97.20
2022-12-13T00:23:10.050Z,97.20
2022-12-13T00:23:44.864Z,97.30
2022-12-13T00:24:20.309Z,97.30
2022-12-13T00:24:55.992Z,97.30
2022-12-13T00:25:32.135Z,97.30
2022-12-13T00:26:10.040Z,97.30
2022-12-13T00:26:44.074Z,97.40
2022-12-13T00:27:19.565Z,97.50
2022-12-13T00:27:55.335Z,97.50
2022-12-13T00:28:30.372Z,97.50
2022-12-13T00:29:07.637Z,97.50
2022-12-13T00:29:42.295Z,97.50
2022-12-13T00:30:19.217Z,97.40
2022-12-13T00:31:13.563Z,97.30
2022-12-13T00:32:01.763Z,97.20
2022-12-13T00:32:36.282Z,97.30
2022-12-13T00:33:11.017Z,97.20
2022-12-13T00:33:46.128Z,97.30
2022-12-13T00:34:26.223Z,97.30
2022-12-13T00:35:01.283Z,97.40
2022-12-13T00:35:35.469Z,97.40
2022-12-13T00:36:12.058Z,97.40
2022-12-13T00:36:47.636Z,97.30
2022-12-13T00:37:24.128Z,97.30
2022-12-13T00:37:58.392Z,97.40
2022-12-13T00:38:34.022Z,97.40
2022-12-13T00:39:09.207Z,97.30
2022-12-13T00:39:44.071Z,97.30
2022-12-13T00:40:18.697Z,97.30
2022-12-13T00:40:54.844Z,97.40
2022-12-13T00:41:32.454Z,97.30
2022-12-13T00:42:08.180Z,97.30
2022-12-13T00:42:42.995Z,97.40
2022-12-13T00:43:17.988Z,97.20
2022-12-13T00:43:54.008Z,97.20
2022-12-13T00:44:28.688Z,97.30
2022-12-13T00:45:04.741Z,97.30
2022-12-13T00:45:39.471Z,97.40
2022-12-13T00:46:15.600Z,97.40
2022-12-13T00:46:52.420Z,97.30
2022-12-13T00:47:27.366Z,97.20
2022-12-13T00:48:01.772Z,97.20
2022-12-13T00:48:37.620Z,97.10
2022-12-13T00:49:13.680Z,97.00
2022-12-13T00:49:48.986Z,96.90
2022-12-13T00:50:23.959Z,96.90
2022-12-13T00:50:58.890Z,96.90
2022-12-13T00:51:36.640Z,97.00
2022-12-13T00:52:10.756Z,97.10
2022-12-13T00:52:46.779Z,97.30
2022-12-13T00:53:20.593Z,97.40
2022-12-13T00:53:55.492Z,97.40
2022-12-13T00:54:31.171Z,97.40
2022-12-13T00:55:05.924Z,97.30
2022-12-13T00:55:42.392Z,97.30
2022-12-13T00:56:22.247Z,97.30
2022-12-13T00:56:58.329Z,97.40
2022-12-13T00:57:34.896Z,97.40
2022-12-13T00:58:10.308Z,97.40
2022-12-13T00:58:48.731Z,97.50
2022-12-13T00:59:27.675Z,97.50
2022-12-13T01:00:02.041Z,97.60
2022-12-13T01:00:36.851Z,97.60
2022-12-13T01:01:15.335Z,97.60
2022-12-13T01:01:50.299Z,97.50
2022-12-13T01:02:25.756Z,97.40
2022-12-13T01:03:00.227Z,97.40
2022-12-13T01:03:34.818Z,97.40
2022-12-13T01:04:10.891Z,97.40
2022-12-13T01:04:46.571Z,97.30
2022-12-13T01:05:46.066Z,97.20
2022-12-13T01:06:20.050Z,97.20
2022-12-13T01:06:55.869Z,97.40
2022-12-13T01:07:31.831Z,97.30
2022-12-13T01:08:06.863Z,97.30
2022-12-13T01:08:41.713Z,97.20
2022-12-13T01:09:20.182Z,97.30
2022-12-13T01:09:53.770Z,97.40
2022-12-13T01:10:29.210Z,97.50
2022-12-13T01:11:06.365Z,97.50
2022-12-13T01:11:41.391Z,97.50
2022-12-13T01:12:18.384Z,97.50
2022-12-13T01:12:55.769Z,97.50
2022-12-13T01:13:30.813Z,97.50
2022-12-13T01:14:06.870Z,97.40
2022-12-13T01:14:41.802Z,97.40
2022-12-13T01:15:16.256Z,97.40
2022-12-13T01:15:51.642Z,97.50
2022-12-13T01:16:25.849Z,97.40
2022-12-13T01:17:02.715Z,97.30
2022-12-13T01:17:36.676Z,97.20
2022-12-13T01:18:11.793Z,97.20
2022-12-13T01:18:48.584Z,97.20
2022-12-13T01:19:23.466Z,97.10
2022-12-13T01:19:58.399Z,97.10
2022-12-13T01:20:33.341Z,97.00
2022-12-13T01:21:11.508Z,97.00
2022-12-13T01:21:47.015Z,97.00
2022-12-13T01:22:22.085Z,97.10
2022-12-13T01:22:56.546Z,97.00
2022-12-13T01:23:31.453Z,97.10
2022-12-13T01:24:07.493Z,97.10
2022-12-13T01:24:43.202Z,97.20
2022-12-13T01:25:18.692Z,97.30
2022-12-13T01:25:53.877Z,97.40
2022-12-13T01:26:29.690Z,97.30
2022-12-13T01:27:06.785Z,97.30
2022-12-13T01:27:44.492Z,97.20
2022-12-13T01:28:19.636Z,97.20
2022-12-13T01:28:54.858Z,97.30
2022-12-13T01:29:29.154Z,97.30
2022-12-13T01:30:06.392Z,97.30
2022-12-13T01:30:40.841Z,97.50
2022-12-13T01:31:18.349Z,97.30
2022-12-13T01:31:52.818Z,97.20
2022-12-13T01:32:28.734Z,97.20
2022-12-13T01:33:03.737Z,97.30
2022-12-13T01:33:53.255Z,97.30
2022-12-13T01:34:28.330Z,97.30
2022-12-13T01:35:03.486Z,97.40
2022-12-13T01:35:39.888Z,97.30
2022-12-13T01:36:15.576Z,97.20
2022-12-13T01:36:50.893Z,97.10
2022-12-13T01:37:25.950Z,97.30
2022-12-13T01:38:02.386Z,97.00
2022-12-13T01:38:49.940Z,97.00
2022-12-13T01:39:26.471Z,97.00
2022-12-13T01:40:00.929Z,97.00
2022-12-13T01:40:38.678Z,96.90
2022-12-13T01:41:18.252Z,96.90
2022-12-13T01:42:00.296Z,97.00
2022-12-13T01:42:39.566Z,97.00
2022-12-13T01:43:16.281Z,97.10
2022-12-13T01:43:57.847Z,97.20
2022-12-13T01:45:04.442Z,97.30
2022-12-13T01:45:39.679Z,97.40
2022-12-13T01:46:15.655Z,97.40
2022-12-13T01:46:52.526Z,97.40
2022-12-13T01:47:32.749Z,97.30
2022-12-13T01:48:12.382Z,97.30
2022-12-13T01:48:50.298Z,97.30
2022-12-13T01:49:26.855Z,97.20
2022-12-13T01:50:07.590Z,97.20
2022-12-13T01:50:47.518Z,97.10
2022-12-13T01:51:28.205Z,97.10
2022-12-13T01:52:09.920Z,97.00
2022-12-13T01:52:46.931Z,97.00
2022-12-13T01:53:29.372Z,97.00
2022-12-13T01:54:06.918Z,97.00
2022-12-13T01:54:49.144Z,97.10
2022-12-13T01:55:27.911Z,97.20
2022-12-13T01:56:07.287Z,97.20
2022-12-13T01:56:45.601Z,97.20
2022-12-13T01:57:25.403Z,97.20
2022-12-13T01:58:02.087Z,97.30
2022-12-13T01:58:39.680Z,97.50
2022-12-13T01:59:16.140Z,97.20
2022-12-13T01:59:55.473Z,97.10
2022-12-13T02:00:31.556Z,97.00
2022-12-13T02:01:07.888Z,97.00
2022-12-13T02:01:42.613Z,97.00
2022-12-13T02:02:18.438Z,96.90
2022-12-13T02:02:54.871Z,97.00
2022-12-13T02:03:30.866Z,97.00
2022-12-13T02:04:05.652Z,97.00
2022-12-13T02:04:47.300Z,97.00
2022-12-13T02:05:28.860Z,97.00
2022-12-13T02:06:07.739Z,97.10
2022-12-13T02:06:45.447Z,97.20
2022-12-13T02:07:24.514Z,97.20
2022-12-13T02:08:01.502Z,97.20
2022-12-13T02:08:37.415Z,97.20
2022-12-13T02:09:13.954Z,97.30
2022-12-13T02:09:48.914Z,97.30
2022-12-13T02:10:33.112Z,97.30
2022-12-13T02:11:08.875Z,97.40
2022-12-13T02:11:46.454Z,97.40
2022-12-13T02:12:21.355Z,97.40
2022-12-13T02:12:55.842Z,97.50
2022-12-13T02:13:30.347Z,97.50
2022-12-13T02:14:08.077Z,97.50
2022-12-13T02:14:42.827Z,97.50
2022-12-13T02:15:19.869Z,97.60
2022-12-13T02:16:06.580Z,97.60
2022-12-13T02:16:53.626Z,97.60
2022-12-13T02:17:44.597Z,97.60
2022-12-13T02:18:33.943Z,97.50
2022-12-13T02:20:00.101Z,97.50
2022-12-13T02:20:57.672Z,97.40
2022-12-13T02:21:38.185Z,97.40
2022-12-13T02:22:26.574Z,97.40
2022-12-13T02:23:22.776Z,97.40
2022-12-13T02:24:31.534Z,97.40
2022-12-13T02:25:30.031Z,97.50
2022-12-13T02:26:40.798Z,97.60
2022-12-13T02:27:17.619Z,97.60
2022-12-13T02:28:31.705Z,97.70
2022-12-13T02:29:34.949Z,97.70
2022-12-13T02:30:28.776Z,97.70
2022-12-13T02:31:09.819Z,97.70
2022-12-13T02:31:51.189Z,97.60
2022-12-13T02:32:32.641Z,97.70
2022-12-13T02:33:29.602Z,97.70
2022-12-13T02:34:08.485Z,97.70
2022-12-13T02:34:49.407Z,97.80
2022-12-13T02:35:28.856Z,97.80
2022-12-13T02:36:15.307Z,97.90
2022-12-13T02:36:58.967Z,97.90
2022-12-13T02:37:43.873Z,97.80
2022-12-13T02:38:27.691Z,97.80
2022-12-13T02:39:08.537Z,97.70
2022-12-13T02:39:49.865Z,97.60
2022-12-13T02:40:28.850Z,97.60
2022-12-13T02:41:14.382Z,97.60
2022-12-13T02:41:51.390Z,97.70
2022-12-13T02:42:30.773Z,97.60
2022-12-13T02:43:08.125Z,97.50
2022-12-13T02:43:50.239Z,97.50
2022-12-13T02:44:29.085Z,97.50
2022-12-13T02:45:08.839Z,97.40
2022-12-13T02:45:49.806Z,97.50
2022-12-13T02:46:28.125Z,97.50
2022-12-13T02:47:12.501Z,97.50
2022-12-13T02:47:52.495Z,97.70
2022-12-13T02:48:30.437Z,97.70
2022-12-13T02:49:08.902Z,97.80
2022-12-13T02:49:48.759Z,97.80
2022-12-13T02:50:24.713Z,97.80
2022-12-13T02:51:03.041Z,97.80
2022-12-13T02:51:39.761Z,97.90
2022-12-13T02:52:22.338Z,97.90
2022-12-13T02:52:57.918Z,98.00
2022-12-13T02:53:33.772Z,98.00
2022-12-13T02:54:08.941Z,97.90
2022-12-13T02:54:43.183Z,97.80
2022-12-13T02:55:18.831Z,97.70
2022-12-13T02:55:53.388Z,97.70
2022-12-13T02:56:29.391Z,97.70
2022-12-13T02:57:03.723Z,97.70
2022-12-13T02:57:40.721Z,97.70
2022-12-13T02:58:18.679Z,97.70
2022-12-13T02:58:56.286Z,97.70
2022-12-13T02:59:37.373Z,97.70
2022-12-13T03:00:14.503Z,97.80
2022-12-13T03:00:58.897Z,97.80
2022-12-13T03:02:09.704Z,97.80
2022-12-13T03:02:57.113Z,97.90
2022-12-13T03:03:43.298Z,98.30
2022-12-13T03:04:29.223Z,98.10
2022-12-13T03:05:35.948Z,98.20
2022-12-13T03:06:33.471Z,98.20
2022-12-13T03:07:21.386Z,98.10
2022-12-13T03:08:12.465Z,98.10
2022-12-13T03:08:58.756Z,98.10
2022-12-13T03:09:47.938Z,98.20
2022-12-13T03:10:30.424Z,98.10
2022-12-13T03:11:09.039Z,97.90
2022-12-13T03:12:33.192Z,97.80
2022-12-13T03:13:32.251Z,97.90
2022-12-13T03:14:11.324Z,97.90
2022-12-13T03:14:54.321Z,97.90
2022-12-13T03:15:35.062Z,97.90
2022-12-13T03:16:29.093Z,98.00
2022-12-13T03:17:06.324Z,97.90
2022-12-13T03:17:48.018Z,97.90
2022-12-13T03:18:25.596Z,98.00
2022-12-13T03:19:03.903Z,98.10
2022-12-13T03:19:38.861Z,98.10
2022-12-13T03:20:23.366Z,98.10
2022-12-13T03:21:01.770Z,98.10
2022-12-13T03:21:45.548Z,98.00
2022-12-13T03:22:22.132Z,97.90
2022-12-13T03:22:57.649Z,97.80
2022-12-13T03:23:32.760Z,97.70
2022-12-13T03:24:09.813Z,97.60
2022-12-13T03:24:44.633Z,97.50
2022-12-13T03:25:32.146Z,97.40
2022-12-13T03:26:12.932Z,97.40
2022-12-13T03:26:48.279Z,97.50
2022-12-13T03:27:24.622Z,97.40
2022-12-13T03:28:01.204Z,97.50
2022-12-13T03:28:37.679Z,97.60
2022-12-13T03:29:13.669Z,97.60
2022-12-13T03:30:01.431Z,97.50
2022-12-13T03:30:36.501Z,97.50
2022-12-13T03:31:13.011Z,97.50
2022-12-13T03:31:49.010Z,97.50
2022-12-13T03:32:22.915Z,97.60
2022-12-13T03:32:57.808Z,97.60
2022-12-13T03:33:32.720Z,97.70
2022-12-13T03:34:07.678Z,97.70
2022-12-13T03:34:46.752Z,97.70
2022-12-13T03:35:23.795Z,98.00
2022-12-13T03:35:59.598Z,97.80
2022-12-13T03:36:36.777Z,97.90
2022-12-13T03:37:11.377Z,97.90
2022-12-13T03:37:45.574Z,97.90
2022-12-13T03:38:23.196Z,97.80
2022-12-13T03:38:58.754Z,97.80
2022-12-13T03:39:33.441Z,97.90
2022-12-13T03:40:13.711Z,97.90
2022-12-13T03:40:48.363Z,97.90
2022-12-13T03:41:32.108Z,98.00
2022-12-13T03:42:07.815Z,98.00
2022-12-13T03:42:43.172Z,97.90
2022-12-13T03:43:22.227Z,97.80
2022-12-13T03:43:57.803Z,97.70
2022-12-13T03:44:34.082Z,97.60
2022-12-13T03:45:11.351Z,97.50
2022-12-13T03:45:47.378Z,97.50
2022-12-13T03:46:24.523Z,97.60
2022-12-13T03:47:00.591Z,97.60
2022-12-13T03:47:36.048Z,97.90
2022-12-13T03:48:11.880Z,97.70
2022-12-13T03:48:46.765Z,97.70
2022-12-13T03:49:26.593Z,97.70
2022-12-13T03:50:26.879Z,97.70
2022-12-13T03:51:03.544Z,97.70
2022-12-13T03:51:38.809Z,97.70
2022-12-13T03:52:14.064Z,97.70
2022-12-13T03:52:52.030Z,97.70
2022-12-13T03:53:33.242Z,97.70
2022-12-13T03:54:09.384Z,97.70
2022-12-13T03:54:45.768Z,97.80
2022-12-13T03:55:20.806Z,97.90
2022-12-13T03:55:54.700Z,98.00
2022-12-13T03:56:31.798Z,98.00
2022-12-13T03:57:06.619Z,98.00
2022-12-13T03:57:41.462Z,97.90
2022-12-13T03:58:16.282Z,97.90
2022-12-13T03:58:50.854Z,97.90
2022-12-13T03:59:25.674Z,97.90
2022-12-13T04:00:00.583Z,98.00
2022-12-13T04:00:37.225Z,98.00
2022-12-13T04:01:15.737Z,98.10
2022-12-13T04:01:52.549Z,98.20
2022-12-13T04:02:31.426Z,98.30
2022-12-13T04:03:06.021Z,98.40
2022-12-13T04:03:43.203Z,98.40
2022-12-13T04:04:18.167Z,98.30
2022-12-13T04:04:53.528Z,98.30
2022-12-13T04:05:31.312Z,98.40
2022-12-13T04:06:06.151Z,98.40
2022-12-13T04:06:40.851Z,98.40
2022-12-13T04:07:21.866Z,98.40
2022-12-13T04:08:00.702Z,98.30
2022-12-13T04:08:37.725Z,98.20
2022-12-13T04:09:12.540Z,98.10
2022-12-13T04:09:47.385Z,98.10
2022-12-13T04:10:25.939Z,98.10
2022-12-13T04:11:22.872Z,98.10
2022-12-13T04:12:15.406Z,98.10
2022-12-13T04:13:07.953Z,98.00
2022-12-13T04:13:43.453Z,98.00
2022-12-13T04:14:22.335Z,98.10
2022-12-13T04:14:58.690Z,98.00
2022-12-13T04:15:33.202Z,97.90
2022-12-13T04:16:11.408Z,97.80
2022-12-13T04:16:45.707Z,97.80
2022-12-13T04:17:23.587Z,97.70
2022-12-13T04:17:58.532Z,97.80
2022-12-13T04:18:34.531Z,97.90
2022-12-13T04:19:08.623Z,97.90
2022-12-13T04:19:44.658Z,98.00
2022-12-13T04:20:19.652Z,98.00
2022-12-13T04:20:58.809Z,98.00
2022-12-13T04:21:33.208Z,98.00
2022-12-13T04:22:08.871Z,98.00
2022-12-13T04:22:44.300Z,98.00
2022-12-13T04:23:18.607Z,98.10
2022-12-13T04:23:54.853Z,98.10
2022-12-13T04:24:32.338Z,97.90
2022-12-13T04:25:09.733Z,97.90
2022-12-13T04:25:46.598Z,97.90
2022-12-13T04:26:20.391Z,97.90
2022-12-13T04:26:55.500Z,98.00
2022-12-13T04:27:31.678Z,98.10
2022-12-13T04:28:06.115Z,98.20
2022-12-13T04:28:43.335Z,98.20
2022-12-13T04:29:20.754Z,98.20
2022-12-13T04:29:56.591Z,98.20
2022-12-13T04:30:31.864Z,98.20
2022-12-13T04:31:07.758Z,98.20
2022-12-13T04:31:41.467Z,98.30
2022-12-13T04:32:26.309Z,98.30
2022-12-13T04:33:04.343Z,98.40
2022-12-13T04:33:43.705Z,98.40
2022-12-13T04:34:18.038Z,98.40
2022-12-13T04:34:53.685Z,98.40
2022-12-13T04:35:36.166Z,98.30
2022-12-13T04:36:14.271Z,98.40
2022-12-13T04:37:07.432Z,98.30
2022-12-13T04:37:43.618Z,98.30
2022-12-13T04:38:18.648Z,98.50
2022-12-13T04:38:52.501Z,98.30
2022-12-13T04:39:28.418Z,98.30
2022-12-13T04:40:11.670Z,98.30
2022-12-13T04:40:50.259Z,98.30
2022-12-13T04:41:25.231Z,98.30
2022-12-13T04:42:11.559Z,98.20
2022-12-13T04:42:47.766Z,98.20
2022-12-13T04:43:30.778Z,98.10
2022-12-13T04:44:06.659Z,98.10
2022-12-13T04:45:01.875Z,98.10
2022-12-13T04:45:37.606Z,98.20
2022-12-13T04:46:12.138Z,98.20
2022-12-13T04:46:49.161Z,98.20
2022-12-13T04:47:24.929Z,98.20
2022-12-13T04:48:00.111Z,98.20
2022-12-13T04:48:35.674Z,98.10
2022-12-13T04:49:11.614Z,98.10
2022-12-13T04:49:46.558Z,98.10
2022-12-13T04:50:20.941Z,98.10
2022-12-13T04:50:58.540Z,98.10
2022-12-13T04:51:36.485Z,98.10
2022-12-13T04:52:11.916Z,98.10
2022-12-13T04:52:48.261Z,98.20
2022-12-13T04:53:23.749Z,98.20
2022-12-13T04:54:24.037Z,98.20
2022-12-13T04:54:58.574Z,98.30
2022-12-13T04:55:56.317Z,98.30
2022-12-13T04:56:31.903Z,98.30
2022-12-13T04:57:07.695Z,98.20
2022-12-13T04:57:44.503Z,98.30
2022-12-13T04:58:22.953Z,98.30
2022-12-13T04:59:00.237Z,98.40
2022-12-13T04:59:33.877Z,98.40
2022-12-13T05:00:10.918Z,98.50
2022-12-13T05:00:45.600Z,98.60
2022-12-13T05:01:21.585Z,98.60
2022-12-13T05:01:56.584Z,98.50
2022-12-13T05:02:32.670Z,98.40
2022-12-13T05:03:08.048Z,98.40
2022-12-13T05:03:46.648Z,98.50
2022-12-13T05:04:21.553Z,98.60
2022-12-13T05:04:57.817Z,98.60
2022-12-13T05:05:33.205Z,98.60
2022-12-13T05:06:26.369Z,98.60
2022-12-13T05:07:03.337Z,98.40
2022-12-13T05:07:42.110Z,98.30
2022-12-13T05:08:18.886Z,98.30
2022-12-13T05:08:53.472Z,98.30
2022-12-13T05:09:29.637Z,98.30
2022-12-13T05:10:04.188Z,98.30
2022-12-13T05:10:39.942Z,98.30
2022-12-13T05:11:17.023Z,98.30
2022-12-13T05:12:01.389Z,98.30
2022-12-13T05:12:38.563Z,98.30
2022-12-13T05:13:16.203Z,98.30
2022-12-13T05:13:52.491Z,98.30
2022-12-13T05:14:27.925Z,98.30
2022-12-13T05:15:03.882Z,98.30
2022-12-13T05:15:39.266Z,98.30
2022-12-13T05:16:16.178Z,98.30
2022-12-13T05:16:50.921Z,98.40
2022-12-13T05:17:26.648Z,98.50
2022-12-13T05:18:09.507Z,98.50
2022-12-13T05:18:47.414Z,98.40
2022-12-13T05:19:30.641Z,98.50
2022-12-13T05:20:07.420Z,98.60
2022-12-13T05:20:43.436Z,98.70
2022-12-13T05:21:17.779Z,98.70
2022-12-13T05:21:52.099Z,98.70
2022-12-13T05:22:27.846Z,98.70
2022-12-13T05:23:05.378Z,98.60
2022-12-13T05:23:42.024Z,98.50
2022-12-13T05:24:16.398Z,98.50
2022-12-13T05:24:51.996Z,98.60
2022-12-13T05:25:28.581Z,98.60
2022-12-13T05:26:03.893Z,98.60
2022-12-13T05:26:39.309Z,98.50
2022-12-13T05:27:25.099Z,98.50
2022-12-13T05:28:26.846Z,98.40
2022-12-13T05:28:56.701Z,98.40
2022-12-13T05:29:34.273Z,98.30
2022-12-13T05:30:12.585Z,98.30
2022-12-13T05:30:48.885Z,98.20
2022-12-13T05:31:25.094Z,98.30
2022-12-13T05:31:59.771Z,98.30
2022-12-13T05:32:43.871Z,98.40
2022-12-13T05:33:19.577Z,98.40
2022-12-13T05:34:01.259Z,98.50
2022-12-13T05:34:37.063Z,98.50
2022-12-13T05:35:23.613Z,98.50
2022-12-13T05:36:01.956Z,98.50
2022-12-13T05:36:37.700Z,98.40
2022-12-13T05:37:14.026Z,98.30
2022-12-13T05:37:48.365Z,98.20
2022-12-13T05:38:31.220Z,98.10
2022-12-13T05:39:06.067Z,98.00
2022-12-13T05:40:02.152Z,98.00
2022-12-13T05:40:37.302Z,98.10
2022-12-13T05:41:17.090Z,98.10
2022-12-13T05:41:52.040Z,98.10
2022-12-13T05:42:28.339Z,98.20
2022-12-13T05:43:03.603Z,98.20
2022-12-13T05:43:58.779Z,98.20
2022-12-13T05:44:34.216Z,98.20
2022-12-13T05:45:11.311Z,98.30
2022-12-13T05:45:46.953Z,98.40
2022-12-13T05:46:22.982Z,98.30
2022-12-13T05:46:57.874Z,98.30
2022-12-13T05:47:34.460Z,98.20
2022-12-13T05:48:10.943Z,98.20
2022-12-13T05:48:45.573Z,98.10
2022-12-13T05:49:22.601Z,98.00
2022-12-13T05:49:58.141Z,98.00
2022-12-13T05:50:32.504Z,98.00
2022-12-13T05:51:10.874Z,97.90
2022-12-13T05:51:45.997Z,97.90
2022-12-13T05:52:30.614Z,98.00
2022-12-13T05:53:05.803Z,98.10
2022-12-13T05:53:41.580Z,98.10
2022-12-13T05:54:17.272Z,98.00
2022-12-13T05:54:56.982Z,98.00
2022-12-13T05:55:36.638Z,98.00
2022-12-13T05:56:12.050Z,98.00
2022-12-13T05:56:46.872Z,98.10
2022-12-13T05:57:22.282Z,98.20
2022-12-13T05:58:02.254Z,98.20
2022-12-13T05:58:39.144Z,98.10
2022-12-13T05:59:13.969Z,98.10
2022-12-13T05:59:50.778Z,98.10
2022-12-13T06:00:30.388Z,98.10
2022-12-13T06:01:10.186Z,98.20
2022-12-13T06:01:45.145Z,98.20
2022-12-13T06:02:22.040Z,98.40
2022-12-13T06:02:57.273Z,98.30
2022-12-13T06:03:36.169Z,98.20
2022-12-13T06:04:12.607Z,98.20
2022-12-13T06:04:58.894Z,98.20
2022-12-13T06:05:35.255Z,98.20
2022-12-13T06:06:11.405Z,98.20
2022-12-13T06:06:47.251Z,98.20
2022-12-13T06:07:25.549Z,98.10
2022-12-13T06:08:00.962Z,98.10
2022-12-13T06:08:36.292Z,98.10
2022-12-13T06:09:11.803Z,98.10
2022-12-13T06:09:46.822Z,98.00
2022-12-13T06:10:23.770Z,98.00
2022-12-13T06:11:10.406Z,98.00
2022-12-13T06:11:47.432Z,97.90
2022-12-13T06:12:31.463Z,97.80
2022-12-13T06:13:21.634Z,97.80
2022-12-13T06:14:04.093Z,97.90
2022-12-13T06:15:02.659Z,98.00
2022-12-13T06:15:44.674Z,98.10
2022-12-13T06:16:22.250Z,98.10
2022-12-13T06:17:01.062Z,98.00
2022-12-13T06:17:36.040Z,98.00
2022-12-13T06:18:13.351Z,97.90
2022-12-13T06:18:50.681Z,97.80
2022-12-13T06:19:27.422Z,97.80
2022-12-13T06:20:23.246Z,97.90
2022-12-13T06:20:59.739Z,98.00
2022-12-13T06:21:41.286Z,98.20
2022-12-13T06:22:21.278Z,97.90
2022-12-13T06:22:57.144Z,98.00
2022-12-13T06:23:33.545Z,98.00
2022-12-13T06:24:09.880Z,98.00
2022-12-13T06:24:47.838Z,98.00
2022-12-13T06:25:30.566Z,98.10
2022-12-13T06:26:09.220Z,98.00
2022-12-13T06:26:44.997Z,98.10
2022-12-13T06:27:21.168Z,98.10
2022-12-13T06:28:00.960Z,98.00
2022-12-13T06:28:36.892Z,98.00
2022-12-13T06:29:11.850Z,98.00
2022-12-13T06:29:48.010Z,98.00
2022-12-13T06:30:24.850Z,97.90
2022-12-13T06:31:01.058Z,97.80
2022-12-13T06:31:36.115Z,97.70
2022-12-13T06:32:12.281Z,97.70
2022-12-13T06:32:50.889Z,97.70
2022-12-13T06:33:25.185Z,97.60
2022-12-13T06:34:13.659Z,97.50
2022-12-13T06:34:49.593Z,97.40
2022-12-13T06:35:29.974Z,97.50
2022-12-13T06:36:08.641Z,97.50
2022-12-13T06:36:45.082Z,97.50
2022-12-13T06:37:20.038Z,97.60
2022-12-13T06:38:01.131Z,97.70
2022-12-13T06:38:43.252Z,97.70
2022-12-13T06:39:19.481Z,97.60
2022-12-13T06:39:57.671Z,97.60
2022-12-13T06:43:54.473Z,97.80
2022-12-13T06:44:35.360Z,97.60
2022-12-13T06:45:12.060Z,97.60
2022-12-13T06:45:46.352Z,97.70
2022-12-13T06:46:21.387Z,97.70
2022-12-13T06:47:11.568Z,97.70
2022-12-13T06:47:49.945Z,97.70
2022-12-13T06:48:29.566Z,97.60
2022-12-13T06:49:04.252Z,97.60
2022-12-13T06:49:40.404Z,97.60
2022-12-13T06:50:15.806Z,97.70
2022-12-13T06:50:53.169Z,97.70
2022-12-13T06:51:32.680Z,97.70
2022-12-13T06:52:10.626Z,97.60
2022-12-13T06:52:48.174Z,97.70
2022-12-13T06:53:25.634Z,97.70
2022-12-13T06:54:00.926Z,97.80
2022-12-13T06:54:37.177Z,97.80
2022-12-13T06:55:12.659Z,97.80
2022-12-13T06:55:49.484Z,97.80
2022-12-13T06:56:24.444Z,97.80
2022-12-13T06:57:00.525Z,97.80
2022-12-13T06:57:40.887Z,97.80
2022-12-13T06:58:16.263Z,97.80
2022-12-13T06:58:50.642Z,97.80
2022-12-13T06:59:26.525Z,97.70
2022-12-13T07:00:04.259Z,97.70
2022-12-13T07:00:48.381Z,97.60
2022-12-13T07:01:25.408Z,97.60
2022-12-13T07:02:03.667Z,97.60
2022-12-13T07:02:40.223Z,97.60
2022-12-13T07:03:17.991Z,97.70
2022-12-13T07:03:52.983Z,97.80
2022-12-13T07:04:31.192Z,97.80
2022-12-13T07:05:07.529Z,97.90
2022-12-13T07:05:44.534Z,97.80
2022-12-13T07:06:22.679Z,97.70
2022-12-13T07:07:01.301Z,97.70
2022-12-13T07:07:37.862Z,97.60
2022-12-13T07:08:13.013Z,97.60
2022-12-13T07:08:58.714Z,97.60
2022-12-13T07:09:35.388Z,97.60
2022-12-13T07:10:22.076Z,97.70
2022-12-13T07:10:58.491Z,97.70
2022-12-13T07:11:34.280Z,97.70
2022-12-13T07:12:10.178Z,97.70
2022-12-13T07:12:44.551Z,97.70
2022-12-13T07:13:21.656Z,97.80
2022-12-13T07:13:57.006Z,97.80
2022-12-13T07:14:32.269Z,97.70
2022-12-13T07:15:19.648Z,97.70
2022-12-13T07:15:55.074Z,97.80
2022-12-13T07:16:36.262Z,97.80
2022-12-13T07:17:11.899Z,97.70
2022-12-13T07:17:49.535Z,97.70
2022-12-13T07:18:25.060Z,97.60
2022-12-13T07:19:03.536Z,97.60
2022-12-13T07:19:39.498Z,97.60
2022-12-13T07:20:16.502Z,97.60
2022-12-13T07:20:53.091Z,97.60
2022-12-13T07:21:29.123Z,97.60
2022-12-13T07:22:06.460Z,97.60
2022-12-13T07:22:47.230Z,97.60
2022-12-13T07:23:24.710Z,97.50
2022-12-13T07:23:59.168Z,97.40
2022-12-13T07:24:34.928Z,97.30
2022-12-13T07:25:27.947Z,97.30
2022-12-13T07:26:05.097Z,97.30
2022-12-13T07:26:40.335Z,97.30
2022-12-13T07:27:18.544Z,97.30
2022-12-13T07:28:01.380Z,97.20
2022-12-13T07:28:38.462Z,97.10
2022-12-13T07:29:13.264Z,97.10
2022-12-13T07:29:58.632Z,97.20
2022-12-13T07:30:41.048Z,97.30
2022-12-13T07:31:16.888Z,97.30
2022-12-13T07:31:51.751Z,97.30
2022-12-13T07:32:28.122Z,97.40
2022-12-13T07:33:03.176Z,97.40
2022-12-13T07:33:39.528Z,97.30
2022-12-13T07:34:18.119Z,97.30
2022-12-13T07:34:53.905Z,97.30
2022-12-13T07:35:28.826Z,97.40
2022-12-13T07:36:04.828Z,97.40
2022-12-13T07:36:41.074Z,97.50
2022-12-13T07:37:30.527Z,97.50
2022-12-13T07:38:05.376Z,97.50
2022-12-13T07:38:41.504Z,97.50
2022-12-13T07:39:16.057Z,97.50
2022-12-13T07:40:02.672Z,97.50
2022-12-13T07:40:38.068Z,97.50
2022-12-13T07:41:23.430Z,97.40
2022-12-13T07:42:02.551Z,97.30
2022-12-13T07:42:37.400Z,97.20
2022-12-13T07:43:14.821Z,97.10
2022-12-13T07:43:54.829Z,97.10
2022-12-13T07:44:32.229Z,97.10
2022-12-13T07:45:10.708Z,97.00
2022-12-13T07:45:47.317Z,97.10
2022-12-13T07:46:25.991Z,97.10
2022-12-13T07:47:08.987Z,97.20
2022-12-13T07:47:43.810Z,97.20
2022-12-13T07:48:20.317Z,97.20
2022-12-13T07:48:55.779Z,97.10
2022-12-13T07:49:37.699Z,97.10
2022-12-13T07:50:24.676Z,97.00
2022-12-13T07:51:10.237Z,96.90
2022-12-13T07:51:46.224Z,97.00
2022-12-13T07:52:24.634Z,97.00
2022-12-13T07:53:02.014Z,97.00
2022-12-13T07:53:38.779Z,97.00
2022-12-13T07:54:14.065Z,97.00
2022-12-13T07:54:52.753Z,97.00
2022-12-13T07:55:33.763Z,97.30
2022-12-13T07:56:11.882Z,97.00
2022-12-13T07:56:47.525Z,96.90
2022-12-13T07:57:24.324Z,96.90
2022-12-13T07:58:04.311Z,96.80
2022-12-13T07:58:39.908Z,96.80
2022-12-13T07:59:16.432Z,96.80
2022-12-13T08:00:05.796Z,96.80
2022-12-13T08:00:48.057Z,97.00
2022-12-13T08:01:23.338Z,97.10
2022-12-13T08:01:58.454Z,97.20
2022-12-13T08:02:38.673Z,97.20
2022-12-13T08:03:25.587Z,97.10
2022-12-13T08:04:02.767Z,97.10
2022-12-13T08:04:38.655Z,97.00
2022-12-13T08:05:26.366Z,96.90
2022-12-13T08:06:04.822Z,96.90
2022-12-13T08:06:43.977Z,97.00
2022-12-13T08:07:22.689Z,96.90
2022-12-13T08:07:58.192Z,97.00
2022-12-13T08:08:33.661Z,97.00
2022-12-13T08:09:18.135Z,96.90
2022-12-13T08:09:56.697Z,97.00
2022-12-13T08:10:32.500Z,97.00
2022-12-13T08:11:09.555Z,97.00
2022-12-13T08:11:46.506Z,96.90
2022-12-13T08:12:22.711Z,96.90
2022-12-13T08:12:57.788Z,97.00
2022-12-13T08:13:32.421Z,97.10
2022-12-13T08:14:09.746Z,97.10
2022-12-13T08:14:44.259Z,97.30
2022-12-13T08:15:22.458Z,97.20
2022-12-13T08:16:00.891Z,97.20
2022-12-13T08:16:36.712Z,97.20
2022-12-13T08:17:11.852Z,97.20
2022-12-13T08:17:46.588Z,97.10
2022-12-13T08:18:25.026Z,97.10